Time;durP1;ratioP1;P1;durP2;ratioP2;P2;SDS_P1;SDS_P2;PMS_P1;PMS_P2;Temp;Humidity;BMP_temperature;BMP_pressure;BME280_temperature;BME280_humidity;BME280_pressure;Samples;Min_cycle;Max_cycle;Signal;HPM_P1;HPM_P2
2023/02/01 00:08:05;;;;;;;1999.90;999.90;;;6.50;99.90;;;;;;6727497;88;20205;-75
2023/02/01 00:18:05;;;;;;;1999.90;999.90;;;6.40;99.90;;;;;;6735122;88;20286;-75
2023/02/01 00:28:06;;;;;;;1999.90;999.90;;;6.50;99.90;;;;;;6732567;88;20287;-75
2023/02/01 00:38:06;;;;;;;1999.90;999.90;;;6.40;99.90;;;;;;6734780;88;20185;-75
2023/02/01 00:48:07;;;;;;;1999.90;999.90;;;6.50;99.90;;;;;;6729871;88;20268;-75
2023/02/01 00:58:09;;;;;;;1999.90;999.90;;;6.50;99.90;;;;;;6725540;88;20913;-75
2023/02/01 01:08:09;;;;;;;1999.90;999.90;;;6.50;99.90;;;;;;6723821;88;20237;-75
2023/02/01 01:18:10;;;;;;;1999.90;999.90;;;6.60;99.90;;;;;;6728896;88;20192;-75
2023/02/01 01:28:10;;;;;;;1999.90;999.90;;;6.50;99.90;;;;;;6730020;88;20307;-75
2023/02/01 01:38:11;;;;;;;1999.90;999.90;;;6.60;99.90;;;;;;6730394;88;20615;-74
2023/02/01 01:48:27;;;;;;;1999.90;999.90;;;6.60;99.90;;;;;;6728045;88;20226;-75
2023/02/01 01:58:31;;;;;;;1999.90;999.90;;;6.50;99.90;;;;;;6731017;88;20692;-75
2023/02/01 02:08:32;;;;;;;1999.90;999.90;;;6.50;99.90;;;;;;6730765;88;20205;-75
2023/02/01 02:18:58;;;;;;;1999.90;999.90;;;6.40;99.90;;;;;;6723802;88;20191;-75
2023/02/01 02:29:33;;;;;;;1999.90;999.90;;;6.40;99.90;;;;;;6728647;88;20203;-75
2023/02/01 02:39:33;;;;;;;1999.90;999.90;;;6.50;99.90;;;;;;6728413;88;20272;-76
2023/02/01 02:54:44;;;;;;;1999.90;999.90;;;6.50;99.90;;;;;;6735579;88;20189;-76
2023/02/01 03:10:44;;;;;;;1999.90;999.90;;;6.60;99.90;;;;;;6728403;88;20216;-75
2023/02/01 03:20:49;;;;;;;1999.90;999.90;;;6.70;99.90;;;;;;6730218;88;20207;-75
2023/02/01 03:30:50;;;;;;;1999.90;999.90;;;6.80;99.90;;;;;;6731946;88;20224;-75
2023/02/01 03:41:08;;;;;;;1999.90;999.90;;;6.70;99.90;;;;;;6729825;88;20250;-76
2023/02/01 03:51:10;;;;;;;1999.90;999.90;;;6.60;99.90;;;;;;6737591;88;20200;-75
2023/02/01 04:01:11;;;;;;;1999.90;999.90;;;6.70;99.90;;;;;;6738890;88;20194;-76
2023/02/01 04:11:11;;;;;;;1999.90;999.90;;;6.60;99.90;;;;;;6740026;88;20551;-75
2023/02/01 04:21:12;;;;;;;1999.90;999.90;;;6.70;99.90;;;;;;6731159;88;20197;-76
2023/02/01 04:31:12;;;;;;;1999.90;999.90;;;6.50;99.90;;;;;;6730943;88;20205;-75
2023/02/01 04:41:13;;;;;;;1999.90;999.90;;;6.50;99.90;;;;;;6726062;88;20309;-75
2023/02/01 04:51:14;;;;;;;1999.90;999.90;;;6.30;99.90;;;;;;6727664;88;20189;-75
2023/02/01 05:01:15;;;;;;;1999.90;999.90;;;6.20;99.90;;;;;;6729408;88;20209;-75
2023/02/01 05:21:35;;;;;;;1999.90;999.90;;;6.20;99.90;;;;;;6724124;88;20202;-76
2023/02/01 05:31:36;;;;;;;1999.90;999.90;;;6.00;99.90;;;;;;6720798;88;20618;-77
2023/02/01 05:41:36;;;;;;;1999.90;999.90;;;5.80;99.90;;;;;;6724535;88;20201;-76
2023/02/01 05:51:37;;;;;;;1999.90;999.90;;;5.80;99.90;;;;;;6724162;88;20596;-76
2023/02/01 06:01:38;;;;;;;1999.90;999.90;;;5.70;99.90;;;;;;6719853;88;20191;-75
2023/02/01 06:11:40;;;;;;;1999.90;999.90;;;5.60;99.90;;;;;;6719983;88;20355;-75
2023/02/01 06:21:40;;;;;;;1999.90;999.90;;;5.60;99.90;;;;;;6736819;88;20195;-75
2023/02/01 06:31:42;;;;;;;1999.90;999.90;;;5.60;99.90;;;;;;6722505;88;20641;-74
2023/02/01 06:41:46;;;;;;;1999.90;999.90;;;5.60;99.90;;;;;;6710475;88;20210;-76
2023/02/01 06:51:47;;;;;;;1999.90;999.90;;;5.50;99.90;;;;;;6718274;88;20686;-75
2023/02/01 07:01:48;;;;;;;1999.90;999.90;;;5.40;99.90;;;;;;6717802;88;20226;-74
2023/02/01 07:11:48;;;;;;;1999.90;999.90;;;5.40;99.90;;;;;;6715174;88;20215;-74
2023/02/01 07:21:49;;;;;;;1999.90;999.90;;;5.50;99.90;;;;;;6709290;88;20247;-74
2023/02/01 07:31:49;;;;;;;1999.90;999.90;;;5.50;99.90;;;;;;6712528;88;20575;-73
2023/02/01 07:41:50;;;;;;;1999.90;999.90;;;5.50;99.90;;;;;;6715815;88;20219;-76
2023/02/01 07:51:50;;;;;;;1999.90;999.90;;;5.40;99.90;;;;;;6727591;88;20190;-75
2023/02/01 08:01:51;;;;;;;1999.90;999.90;;;5.50;99.90;;;;;;6724006;88;20215;-74
2023/02/01 08:11:51;;;;;;;1999.90;999.90;;;5.70;99.90;;;;;;6714720;88;20676;-74
2023/02/01 08:21:52;;;;;;;1999.90;999.90;;;5.80;99.90;;;;;;6714148;88;20734;-74
2023/02/01 08:31:54;;;;;;;1999.90;999.90;;;6.00;99.90;;;;;;6715813;88;20208;-76
2023/02/01 08:52:13;;;;;;;1999.90;999.90;;;6.20;99.90;;;;;;6708399;88;20265;-74
2023/02/01 09:02:16;;;;;;;1999.90;999.90;;;6.40;99.90;;;;;;6712003;88;20285;-75
2023/02/01 09:12:16;;;;;;;1999.90;999.90;;;6.50;99.90;;;;;;6722732;88;20210;-74
2023/02/01 09:22:17;;;;;;;1999.90;999.90;;;6.50;99.90;;;;;;6729711;88;20181;-74
2023/02/01 09:32:22;;;;;;;1999.90;999.90;;;6.70;99.90;;;;;;6719102;88;20211;-75
2023/02/01 09:42:44;;;;;;;1999.90;999.90;;;6.90;99.90;;;;;;6717025;88;20201;-76
2023/02/01 09:53:00;;;;;;;1999.90;999.90;;;6.90;99.90;;;;;;6719097;88;20367;-75
2023/02/01 10:03:00;;;;;;;1999.90;999.90;;;6.90;99.90;;;;;;6717972;88;20189;-75
2023/02/01 10:13:13;;;;;;;1999.90;999.90;;;7.10;99.90;;;;;;6723001;88;20222;-75
2023/02/01 10:23:35;;;;;;;1999.90;999.90;;;7.20;99.90;;;;;;6710311;88;20266;-75
2023/02/01 10:33:46;;;;;;;1999.90;999.90;;;7.20;99.90;;;;;;6712935;88;20257;-75
2023/02/01 10:43:56;;;;;;;1999.90;999.90;;;7.50;99.90;;;;;;6710575;88;20721;-76
2023/02/01 10:54:02;;;;;;;1999.90;999.90;;;7.90;99.90;;;;;;6715527;88;20201;-76
2023/02/01 11:04:05;;;;;;;1999.90;999.90;;;8.50;99.90;;;;;;6716612;88;20444;-77
2023/02/01 11:14:16;;;;;;;1999.90;999.90;;;8.90;99.90;;;;;;6719801;88;20215;-76
2023/02/01 11:24:26;;;;;;;1999.90;999.90;;;8.70;99.90;;;;;;6710296;88;20213;-74
2023/02/01 11:35:01;;;;;;;1999.90;999.90;;;8.60;99.90;;;;;;6711505;88;20588;-76
2023/02/01 11:45:19;;;;;;;1999.90;999.90;;;8.50;99.90;;;;;;6709153;88;20788;-76
2023/02/01 11:55:49;;;;;;;1999.90;999.90;;;8.40;99.90;;;;;;6718392;88;20354;-76
2023/02/01 12:06:26;;;;;;;1999.90;999.90;;;8.60;99.90;;;;;;6712448;88;20373;-76
2023/02/01 12:16:46;;;;;;;1999.90;999.90;;;8.60;99.90;;;;;;6708400;88;20213;-74
2023/02/01 12:27:07;;;;;;;1999.90;999.90;;;8.40;99.90;;;;;;6734229;88;20778;-74
2023/02/01 12:37:36;;;;;;;1999.90;999.90;;;8.20;99.90;;;;;;6725255;88;20216;-76
2023/02/01 12:48:12;;;;;;;1999.90;999.90;;;8.10;99.90;;;;;;6713778;88;20621;-76
2023/02/01 12:58:17;;;;;;;1999.90;999.90;;;8.10;99.90;;;;;;6707760;88;20640;-76
2023/02/01 13:08:24;;;;;;;1999.90;999.90;;;8.20;99.90;;;;;;6714053;88;20202;-75
2023/02/01 13:18:26;;;;;;;;;;;8.10;99.90;;;;;;6714937;88;20338;-76
2023/02/01 13:28:45;;;;;;;1999.90;999.90;;;8.20;99.90;;;;;;6722899;88;20180;-76
2023/02/01 13:39:04;;;;;;;1999.90;999.90;;;8.20;99.90;;;;;;6720741;88;20689;-76
2023/02/01 13:49:05;;;;;;;1999.90;999.90;;;8.10;99.90;;;;;;6713859;88;20199;-76
2023/02/01 13:59:40;;;;;;;1999.90;999.90;;;7.90;99.90;;;;;;6712039;88;20193;-77
2023/02/01 14:09:42;;;;;;;1999.90;999.90;;;7.60;99.90;;;;;;6701130;88;20422;-75
2023/02/01 14:19:42;;;;;;;1999.90;999.90;;;7.60;99.90;;;;;;6711756;88;20420;-77
2023/02/01 14:29:54;;;;;;;1999.90;999.90;;;7.60;99.90;;;;;;6716947;88;20288;-76
2023/02/01 14:40:02;;;;;;;1999.90;999.90;;;7.80;99.90;;;;;;6719157;88;20641;-76
2023/02/01 14:50:12;;;;;;;1999.90;999.90;;;7.80;99.90;;;;;;6719946;88;21082;-76
2023/02/01 15:00:47;;;;;;;1999.90;999.90;;;8.00;99.90;;;;;;6709090;88;20201;-76
2023/02/01 15:10:50;;;;;;;1999.90;999.90;;;8.10;99.90;;;;;;6710942;88;20201;-77
2023/02/01 15:20:58;;;;;;;1999.90;999.90;;;8.10;99.90;;;;;;6715162;88;20247;-75
2023/02/01 15:31:01;;;;;;;1999.90;999.90;;;8.20;99.90;;;;;;6714961;88;20209;-74
2023/02/01 15:41:18;;;;;;;1999.90;999.90;;;8.20;99.90;;;;;;6710130;88;20190;-76
2023/02/01 15:51:22;;;;;;;1999.90;999.90;;;8.20;99.90;;;;;;6711784;88;20219;-75
2023/02/01 16:01:23;;;;;;;1999.90;999.90;;;8.20;99.90;;;;;;6714521;88;20239;-76
2023/02/01 16:11:32;;;;;;;1999.90;999.90;;;8.00;99.90;;;;;;6712186;88;20182;-75
2023/02/01 16:21:32;;;;;;;1999.90;999.90;;;7.30;99.90;;;;;;6717034;88;20229;-76
2023/02/01 16:31:36;;;;;;;1999.90;999.90;;;7.00;99.90;;;;;;6711785;88;20343;-76
2023/02/01 16:41:39;;;;;;;1999.90;999.90;;;6.80;99.90;;;;;;6727381;88;20217;-76
2023/02/01 16:51:40;;;;;;;1999.90;999.90;;;6.60;99.90;;;;;;6727477;88;20225;-74
2023/02/01 17:01:42;;;;;;;1999.90;999.90;;;6.50;99.90;;;;;;6714687;88;20252;-76
2023/02/01 17:11:42;;;;;;;1999.90;999.90;;;6.40;99.90;;;;;;6716631;88;20325;-76
2023/02/01 17:21:53;;;;;;;1999.90;999.90;;;6.20;99.90;;;;;;6725525;88;20198;-80
2023/02/01 17:31:55;;;;;;;1999.90;999.90;;;6.20;99.90;;;;;;6731778;88;20633;-74
2023/02/01 17:41:55;;;;;;;1999.90;999.90;;;6.20;99.90;;;;;;6726343;88;20186;-75
2023/02/01 17:51:56;;;;;;;1999.90;999.90;;;6.20;99.90;;;;;;6714560;88;20226;-76
2023/02/01 18:01:59;;;;;;;1999.90;999.90;;;6.10;99.90;;;;;;6710038;88;20219;-77
2023/02/01 18:12:03;;;;;;;1999.90;999.90;;;6.20;99.90;;;;;;6715426;88;20617;-77
2023/02/01 18:22:04;;;;;;;1999.90;999.90;;;6.30;99.90;;;;;;6719732;88;20208;-77
2023/02/01 18:32:05;;;;;;;1999.90;999.90;;;6.40;99.90;;;;;;6717550;88;20206;-77
2023/02/01 18:42:08;;;;;;;1999.90;999.90;;;6.50;99.90;;;;;;6717126;88;20237;-76
2023/02/01 18:52:12;;;;;;;1999.90;999.90;;;6.60;99.90;;;;;;6717951;88;20310;-78
2023/02/01 19:02:12;;;;;;;1999.90;999.90;;;6.70;99.90;;;;;;6721341;88;20214;-78
2023/02/01 19:12:13;;;;;;;1999.90;999.90;;;6.80;99.90;;;;;;6715563;88;20251;-75
2023/02/01 19:22:13;;;;;;;1999.90;999.90;;;6.90;99.90;;;;;;6716604;88;20216;-74
2023/02/01 19:32:14;;;;;;;1999.90;999.90;;;7.00;99.90;;;;;;6716114;88;20675;-74
2023/02/01 19:42:15;;;;;;;1999.90;999.90;;;7.00;99.90;;;;;;6713360;88;20256;-75
2023/02/01 19:52:16;;;;;;;1999.90;999.90;;;7.10;99.90;;;;;;6710637;88;20234;-75
2023/02/01 20:02:16;;;;;;;1999.90;999.90;;;7.10;99.90;;;;;;6718320;88;20941;-76
2023/02/01 20:12:18;;;;;;;1999.90;999.90;;;7.20;99.90;;;;;;6715029;88;20189;-75
2023/02/01 20:22:19;;;;;;;1999.90;999.90;;;7.30;99.90;;;;;;6719444;88;20193;-75
2023/02/01 20:32:19;;;;;;;1999.90;999.90;;;7.40;99.90;;;;;;6713808;88;20221;-75
2023/02/01 20:42:20;;;;;;;1999.90;999.90;;;7.40;99.90;;;;;;6718956;88;20260;-75
2023/02/01 20:52:20;;;;;;;1999.90;999.90;;;7.50;99.90;;;;;;6734170;88;20202;-76
2023/02/01 21:02:21;;;;;;;1999.90;999.90;;;7.60;99.90;;;;;;6714491;88;20224;-75
2023/02/01 21:12:22;;;;;;;1999.90;999.90;;;7.60;99.90;;;;;;6709665;88;20681;-75
2023/02/01 21:22:23;;;;;;;1999.90;999.90;;;7.50;99.90;;;;;;6710041;88;20644;-75
2023/02/01 21:32:23;;;;;;;1999.90;999.90;;;7.60;99.90;;;;;;6714918;88;20211;-76
2023/02/01 21:42:25;;;;;;;1999.90;999.90;;;7.70;99.90;;;;;;6719973;88;20433;-77
2023/02/01 21:52:26;;;;;;;1999.90;999.90;;;7.70;99.90;;;;;;6712025;88;20169;-76
2023/02/01 22:02:27;;;;;;;1999.90;999.90;;;7.70;99.90;;;;;;6730874;88;20185;-76
2023/02/01 22:12:27;;;;;;;1999.90;999.90;;;7.70;99.90;;;;;;6713279;88;20220;-77
2023/02/01 22:22:28;;;;;;;1999.90;999.90;;;7.80;99.90;;;;;;6712278;88;20182;-77
2023/02/01 22:32:28;;;;;;;1999.90;999.90;;;7.80;99.90;;;;;;6714794;88;20252;-77
2023/02/01 22:42:29;;;;;;;1999.90;999.90;;;7.80;99.90;;;;;;6714958;88;20789;-76
2023/02/01 22:52:30;;;;;;;1999.90;999.90;;;7.80;99.90;;;;;;6715465;88;20280;-75
2023/02/01 23:02:30;;;;;;;1999.90;999.90;;;7.80;99.90;;;;;;6714185;88;20249;-76
2023/02/01 23:12:31;;;;;;;1999.90;999.90;;;7.80;99.90;;;;;;6717165;88;20668;-75
2023/02/01 23:22:32;;;;;;;1999.90;999.90;;;7.80;99.90;;;;;;6721620;88;20193;-76
2023/02/01 23:32:33;;;;;;;1999.90;999.90;;;7.80;99.90;;;;;;6720968;88;20236;-76
2023/02/01 23:42:34;;;;;;;1999.90;999.90;;;7.80;99.90;;;;;;6720031;88;20185;-76
2023/02/01 23:52:35;;;;;;;1999.90;999.90;;;7.80;99.90;;;;;;6721180;88;20241;-77
